createdAt,value
2019-03-17T00:00:53.393Z,1.90
2019-03-17T00:01:57.729Z,1.80
2019-03-17T00:02:53.577Z,1.50
2019-03-17T00:03:53.671Z,1.70
2019-03-17T00:04:53.757Z,1.70
2019-03-17T00:05:53.847Z,1.60
2019-03-17T00:06:53.937Z,1.90
2019-03-17T00:07:54.062Z,1.90
2019-03-17T00:08:54.118Z,1.80
2019-03-17T00:09:54.203Z,1.70
2019-03-17T00:10:54.305Z,1.90
2019-03-17T00:11:54.395Z,2.00
2019-03-17T00:12:54.485Z,2.00
2019-03-17T00:13:54.574Z,2.10
2019-03-17T00:15:04.553Z,1.90
2019-03-17T00:15:54.757Z,1.80
2019-03-17T00:16:54.847Z,1.90
2019-03-17T00:17:54.938Z,1.80
2019-03-17T00:18:55.059Z,2.00
2019-03-17T00:19:55.146Z,2.00
2019-03-17T00:20:55.237Z,1.80
2019-03-17T00:21:55.326Z,1.80
2019-03-17T00:22:55.415Z,1.80
2019-03-17T00:23:55.509Z,1.70
2019-03-17T00:25:08.203Z,1.80
2019-03-17T00:25:55.687Z,1.70
2019-03-17T00:26:55.777Z,1.70
2019-03-17T00:27:55.873Z,1.90
2019-03-17T00:28:55.959Z,1.80
2019-03-17T00:29:56.050Z,1.80
2019-03-17T00:30:56.139Z,2.00
2019-03-17T00:31:56.229Z,1.80
2019-03-17T00:32:56.319Z,2.00
2019-03-17T00:33:56.411Z,1.90
2019-03-17T00:34:56.505Z,1.70
2019-03-17T00:35:56.594Z,1.70
2019-03-17T00:36:56.689Z,2.10
2019-03-17T00:37:56.776Z,1.90
2019-03-17T00:38:56.864Z,1.90
2019-03-17T00:39:56.955Z,1.80
2019-03-17T00:40:57.049Z,2.00
2019-03-17T00:41:57.132Z,1.70
2019-03-17T00:42:57.218Z,3.50
2019-03-17T00:43:57.312Z,2.30
2019-03-17T00:44:57.401Z,2.00
2019-03-17T00:45:57.488Z,2.00
2019-03-17T00:46:57.585Z,1.80
2019-03-17T00:47:57.674Z,2.00
2019-03-17T00:48:57.759Z,1.90
2019-03-17T00:49:57.856Z,1.60
2019-03-17T00:50:57.945Z,1.80
2019-03-17T00:51:58.030Z,2.00
2019-03-17T00:52:58.119Z,1.80
2019-03-17T00:53:58.210Z,1.70
2019-03-17T00:54:58.307Z,1.80
2019-03-17T00:55:58.404Z,1.80
2019-03-17T00:56:58.480Z,1.50
2019-03-17T00:57:59.682Z,1.60
2019-03-17T00:58:58.662Z,1.60
2019-03-17T00:59:58.764Z,1.80
2019-03-17T01:00:58.852Z,1.90
2019-03-17T01:01:58.942Z,2.00
2019-03-17T01:02:59.031Z,1.80
2019-03-17T01:03:59.132Z,2.00
2019-03-17T01:04:59.206Z,1.70
2019-03-17T01:05:59.296Z,1.70
2019-03-17T01:06:59.383Z,2.00
2019-03-17T01:07:59.476Z,1.60
2019-03-17T01:08:59.564Z,1.90
2019-03-17T01:09:59.653Z,1.80
2019-03-17T01:10:59.744Z,1.80
2019-03-17T01:11:59.833Z,1.60
2019-03-17T01:12:59.922Z,1.80
2019-03-17T01:14:00.011Z,1.70
2019-03-17T01:15:00.172Z,1.80
2019-03-17T01:16:00.192Z,1.60
2019-03-17T01:17:00.286Z,1.90
2019-03-17T01:18:00.375Z,1.70
2019-03-17T01:19:00.471Z,2.00
2019-03-17T01:20:00.555Z,1.90
2019-03-17T01:21:00.648Z,1.80
2019-03-17T01:22:00.739Z,1.70
2019-03-17T01:23:00.828Z,1.80
2019-03-17T01:24:00.917Z,2.00
2019-03-17T01:25:01.023Z,1.80
2019-03-17T01:26:01.120Z,1.80
2019-03-17T01:27:01.220Z,1.90
2019-03-17T01:28:01.309Z,1.80
2019-03-17T01:29:01.402Z,2.00
2019-03-17T01:30:01.494Z,1.80
2019-03-17T01:31:01.583Z,1.80
2019-03-17T01:32:01.662Z,2.30
2019-03-17T01:33:01.750Z,1.80
2019-03-17T01:34:01.841Z,1.80
2019-03-17T01:35:09.334Z,2.10
2019-03-17T01:36:02.024Z,2.00
2019-03-17T01:37:02.111Z,2.10
2019-03-17T01:38:02.200Z,2.00
2019-03-17T01:39:02.295Z,1.90
2019-03-17T01:40:02.384Z,2.20
2019-03-17T01:41:02.470Z,2.00
2019-03-17T01:42:02.571Z,2.10
2019-03-17T01:43:02.649Z,2.00
2019-03-17T01:44:02.754Z,2.10
2019-03-17T01:45:02.845Z,2.10
2019-03-17T01:46:02.930Z,2.00
2019-03-17T01:47:03.059Z,2.20
2019-03-17T01:48:03.140Z,2.20
2019-03-17T01:49:03.189Z,2.20
2019-03-17T01:50:03.278Z,2.30
2019-03-17T01:51:03.370Z,2.60
2019-03-17T01:52:03.459Z,2.20
2019-03-17T01:53:03.551Z,2.10
2019-03-17T01:54:03.638Z,2.10
2019-03-17T01:55:03.731Z,2.20
2019-03-17T01:56:03.823Z,2.10
2019-03-17T01:57:03.906Z,2.10
2019-03-17T01:58:03.995Z,2.30
2019-03-17T01:59:04.090Z,1.90
2019-03-17T02:00:04.175Z,2.20
2019-03-17T02:01:04.263Z,2.00
2019-03-17T02:02:04.350Z,2.20
2019-03-17T02:03:04.439Z,2.20
2019-03-17T02:04:04.532Z,2.10
2019-03-17T02:05:04.619Z,2.10
2019-03-17T02:06:04.712Z,2.00
2019-03-17T02:07:04.801Z,2.10
2019-03-17T02:08:04.892Z,2.00
2019-03-17T02:09:05.033Z,2.10
2019-03-17T02:10:05.080Z,2.00
2019-03-17T02:11:05.174Z,2.20
2019-03-17T02:12:05.260Z,2.10
2019-03-17T02:13:05.349Z,2.00
2019-03-17T02:14:05.438Z,2.10
2019-03-17T02:15:05.529Z,2.00
2019-03-17T02:16:05.619Z,2.30
2019-03-17T02:17:05.709Z,1.80
2019-03-17T02:18:05.805Z,2.00
2019-03-17T02:19:05.888Z,2.20
2019-03-17T02:20:05.989Z,1.90
2019-03-17T02:21:06.070Z,2.20
2019-03-17T02:22:06.151Z,2.00
2019-03-17T02:23:06.236Z,2.30
2019-03-17T02:24:06.327Z,2.00
2019-03-17T02:25:06.419Z,2.30
2019-03-17T02:26:06.510Z,2.20
2019-03-17T02:27:06.603Z,2.00
2019-03-17T02:28:06.694Z,2.10
2019-03-17T02:29:06.776Z,2.10
2019-03-17T02:30:06.868Z,2.40
2019-03-17T02:31:06.958Z,2.00
2019-03-17T02:32:07.044Z,1.90
2019-03-17T02:33:07.138Z,1.90
2019-03-17T02:34:07.245Z,2.10
2019-03-17T02:35:07.337Z,2.00
2019-03-17T02:36:07.427Z,2.10
2019-03-17T02:37:07.515Z,1.90
2019-03-17T02:38:07.616Z,2.00
2019-03-17T02:39:07.697Z,1.80
2019-03-17T02:40:07.787Z,2.00
2019-03-17T02:41:07.877Z,2.10
2019-03-17T02:42:07.968Z,2.00
2019-03-17T02:43:08.060Z,2.00
2019-03-17T02:44:08.144Z,1.80
2019-03-17T02:45:08.234Z,2.00
2019-03-17T02:46:08.324Z,1.90
2019-03-17T02:47:08.414Z,1.90
2019-03-17T02:48:08.507Z,1.90
2019-03-17T02:49:08.593Z,1.80
2019-03-17T02:50:08.755Z,2.10
2019-03-17T02:51:08.785Z,2.00
2019-03-17T02:52:08.867Z,2.20
2019-03-17T02:53:08.958Z,1.80
2019-03-17T02:54:09.124Z,2.00
2019-03-17T02:55:09.154Z,1.60
2019-03-17T02:56:09.225Z,1.80
2019-03-17T02:57:09.315Z,1.90
2019-03-17T02:58:09.421Z,1.80
2019-03-17T02:59:09.506Z,1.90
2019-03-17T03:00:09.597Z,1.80
2019-03-17T03:01:09.676Z,1.80
2019-03-17T03:02:09.769Z,1.80
2019-03-17T03:03:09.871Z,1.70
2019-03-17T03:04:09.944Z,1.90
2019-03-17T03:05:10.038Z,2.00
2019-03-17T03:06:10.123Z,1.90
2019-03-17T03:07:10.212Z,1.80
2019-03-17T03:08:10.301Z,2.10
2019-03-17T03:09:10.394Z,1.90
2019-03-17T03:10:10.482Z,2.20
2019-03-17T03:11:10.573Z,2.20
2019-03-17T03:12:10.657Z,1.80
2019-03-17T03:13:10.745Z,1.80
2019-03-17T03:14:10.836Z,1.90
2019-03-17T03:15:10.930Z,1.80
2019-03-17T03:16:11.017Z,1.80
2019-03-17T03:17:11.117Z,2.10
2019-03-17T03:18:11.199Z,1.80
2019-03-17T03:19:11.292Z,1.90
2019-03-17T03:20:11.383Z,1.90
2019-03-17T03:21:11.475Z,1.80
2019-03-17T03:22:11.560Z,1.90
2019-03-17T03:23:11.657Z,1.80
2019-03-17T03:24:11.746Z,1.80
2019-03-17T03:25:11.840Z,2.10
2019-03-17T03:26:11.928Z,2.20
2019-03-17T03:27:12.020Z,1.90
2019-03-17T03:28:12.129Z,1.90
2019-03-17T03:29:12.217Z,1.90
2019-03-17T03:30:12.325Z,2.00
2019-03-17T03:31:12.394Z,2.00
2019-03-17T03:32:12.494Z,2.10
2019-03-17T03:33:12.578Z,1.80
2019-03-17T03:34:12.668Z,1.70
2019-03-17T03:35:12.767Z,2.00
2019-03-17T03:36:12.845Z,1.70
2019-03-17T03:37:12.933Z,2.30
2019-03-17T03:38:13.024Z,2.00
2019-03-17T03:39:13.127Z,1.90
2019-03-17T03:40:13.199Z,1.90
2019-03-17T03:41:13.289Z,1.90
2019-03-17T03:42:13.379Z,1.60
2019-03-17T03:43:13.480Z,1.90
2019-03-17T03:44:13.573Z,2.10
2019-03-17T03:45:13.665Z,2.00
2019-03-17T03:46:13.750Z,1.80
2019-03-17T03:47:13.843Z,1.90
2019-03-17T03:48:13.934Z,2.10
2019-03-17T03:49:14.023Z,1.70
2019-03-17T03:50:14.110Z,1.90
2019-03-17T03:51:14.200Z,1.90
2019-03-17T03:52:14.292Z,1.70
2019-03-17T03:53:14.382Z,1.90
2019-03-17T03:54:14.476Z,1.60
2019-03-17T03:55:14.566Z,1.90
2019-03-17T03:56:14.682Z,2.10
2019-03-17T03:57:14.745Z,1.90
2019-03-17T03:58:14.835Z,2.00
2019-03-17T03:59:14.928Z,1.90
2019-03-17T04:00:15.036Z,1.90
2019-03-17T04:01:15.117Z,1.70
2019-03-17T04:02:15.215Z,1.90
2019-03-17T04:03:15.305Z,2.00
2019-03-17T04:04:15.399Z,1.90
2019-03-17T04:05:15.487Z,1.90
2019-03-17T04:06:26.182Z,2.00
2019-03-17T04:07:15.669Z,1.90
2019-03-17T04:08:15.760Z,2.00
2019-03-17T04:09:15.849Z,1.90
2019-03-17T04:10:15.940Z,2.00
2019-03-17T04:11:16.033Z,2.20
2019-03-17T04:12:16.124Z,1.90
2019-03-17T04:13:16.214Z,1.90
2019-03-17T04:14:16.303Z,2.00
2019-03-17T04:15:16.396Z,1.90
2019-03-17T04:16:16.485Z,1.80
2019-03-17T04:17:16.576Z,2.40
2019-03-17T04:18:16.671Z,2.00
2019-03-17T04:19:16.753Z,1.90
2019-03-17T04:20:16.847Z,2.30
2019-03-17T04:21:16.941Z,2.10
2019-03-17T04:22:17.030Z,2.10
2019-03-17T04:23:17.120Z,2.10
2019-03-17T04:24:17.210Z,2.20
2019-03-17T04:25:17.308Z,2.00
2019-03-17T04:26:17.393Z,2.00
2019-03-17T04:27:17.477Z,2.20
2019-03-17T04:28:17.568Z,2.00
2019-03-17T04:29:17.660Z,2.00
2019-03-17T04:30:17.748Z,2.10
2019-03-17T04:31:17.837Z,2.00
2019-03-17T04:32:17.927Z,2.10
2019-03-17T04:33:18.018Z,2.10
2019-03-17T04:34:18.106Z,2.10
2019-03-17T04:35:18.249Z,2.00
2019-03-17T04:36:18.276Z,1.90
2019-03-17T04:37:18.364Z,2.00
2019-03-17T04:38:18.458Z,2.10
2019-03-17T04:39:18.548Z,2.10
2019-03-17T04:40:18.638Z,2.20
2019-03-17T04:41:18.730Z,2.30
2019-03-17T04:42:18.820Z,2.10
2019-03-17T04:43:18.911Z,2.00
2019-03-17T04:44:21.145Z,2.00
2019-03-17T04:45:19.090Z,2.10
2019-03-17T04:46:19.197Z,2.00
2019-03-17T04:47:19.285Z,2.20
2019-03-17T04:48:19.378Z,2.40
2019-03-17T04:49:19.481Z,2.30
2019-03-17T04:50:19.558Z,2.50
2019-03-17T04:51:19.652Z,2.20
2019-03-17T04:52:19.742Z,2.50
2019-03-17T04:53:19.831Z,2.40
2019-03-17T04:54:19.920Z,2.40
2019-03-17T04:55:20.011Z,2.10
2019-03-17T04:56:20.103Z,2.40
2019-03-17T04:57:20.201Z,2.60
2019-03-17T04:58:20.285Z,2.20
2019-03-17T04:59:20.375Z,2.20
2019-03-17T05:00:20.465Z,2.40
2019-03-17T05:01:20.565Z,2.40
2019-03-17T05:02:20.660Z,2.40
2019-03-17T05:03:20.741Z,2.30
2019-03-17T05:04:20.839Z,2.40
2019-03-17T05:05:20.925Z,2.80
2019-03-17T05:06:21.016Z,2.30
2019-03-17T05:07:21.122Z,2.50
2019-03-17T05:08:21.195Z,2.40
2019-03-17T05:09:21.279Z,2.10
2019-03-17T05:10:22.919Z,2.40
2019-03-17T05:11:21.460Z,2.50
2019-03-17T05:12:21.549Z,2.50
2019-03-17T05:13:21.639Z,2.50
2019-03-17T05:14:21.730Z,2.50
2019-03-17T05:15:21.819Z,2.50
2019-03-17T05:16:21.910Z,2.40
2019-03-17T05:17:22.003Z,2.10
2019-03-17T05:18:22.095Z,2.20
2019-03-17T05:19:22.191Z,2.10
2019-03-17T05:20:22.294Z,2.20
2019-03-17T05:21:22.389Z,2.50
2019-03-17T05:22:22.479Z,2.50
2019-03-17T05:23:22.568Z,2.20
2019-03-17T05:24:22.659Z,2.30
2019-03-17T05:25:29.907Z,2.80
2019-03-17T05:26:22.872Z,2.20
2019-03-17T05:27:22.963Z,2.30
2019-03-17T05:28:23.288Z,2.50
2019-03-17T05:29:23.150Z,2.10
2019-03-17T05:30:23.260Z,2.40
2019-03-17T05:31:23.352Z,2.50
2019-03-17T05:32:23.441Z,2.50
2019-03-17T05:33:23.533Z,2.40
2019-03-17T05:34:23.624Z,2.50
2019-03-17T05:35:23.715Z,2.40
2019-03-17T05:36:23.810Z,2.30
2019-03-17T05:37:23.894Z,2.50
2019-03-17T05:38:23.989Z,2.70
2019-03-17T05:39:24.073Z,2.30
2019-03-17T05:40:24.160Z,2.30
2019-03-17T05:41:24.253Z,2.30
2019-03-17T05:42:24.343Z,2.50
2019-03-17T05:43:24.433Z,2.50
2019-03-17T05:44:24.522Z,2.60
2019-03-17T05:45:24.613Z,2.30
2019-03-17T05:46:24.702Z,2.60
2019-03-17T05:47:24.794Z,2.00
2019-03-17T05:48:24.883Z,2.40
2019-03-17T05:49:24.967Z,2.70
2019-03-17T05:50:25.063Z,2.50
2019-03-17T05:51:25.177Z,2.30
2019-03-17T05:52:25.289Z,2.60
2019-03-17T05:53:25.377Z,2.50
2019-03-17T05:54:25.469Z,2.70
2019-03-17T05:55:25.556Z,2.60
2019-03-17T05:56:25.658Z,2.40
2019-03-17T05:57:25.745Z,2.50
2019-03-17T05:58:25.834Z,2.50
2019-03-17T05:59:25.928Z,2.90
2019-03-17T06:00:26.019Z,2.70
2019-03-17T06:01:26.112Z,2.30
2019-03-17T06:02:26.201Z,2.40
2019-03-17T06:03:26.292Z,2.30
2019-03-17T06:04:26.380Z,2.40
2019-03-17T06:05:26.482Z,2.70
2019-03-17T06:06:26.572Z,2.60
2019-03-17T06:07:26.660Z,2.40
2019-03-17T06:08:26.751Z,2.40
2019-03-17T06:09:26.842Z,2.40
2019-03-17T06:10:26.933Z,2.70
2019-03-17T06:11:27.037Z,2.60
2019-03-17T06:12:27.116Z,2.50
2019-03-17T06:13:27.213Z,2.70
2019-03-17T06:14:27.299Z,2.80
2019-03-17T06:15:27.392Z,2.80
2019-03-17T06:16:27.481Z,2.50
2019-03-17T06:17:27.571Z,2.70
2019-03-17T06:18:27.663Z,2.50
2019-03-17T06:19:27.754Z,2.70
2019-03-17T06:20:27.844Z,2.50
2019-03-17T06:21:27.938Z,2.50
2019-03-17T06:22:28.026Z,2.60
2019-03-17T06:23:28.115Z,2.80
2019-03-17T06:24:28.210Z,2.70
2019-03-17T06:25:28.300Z,2.70
2019-03-17T06:26:28.389Z,2.90
2019-03-17T06:27:28.474Z,2.70
2019-03-17T06:28:28.565Z,2.60
2019-03-17T06:29:28.655Z,2.70
2019-03-17T06:30:28.748Z,3.00
2019-03-17T06:31:28.838Z,2.90
2019-03-17T06:32:28.931Z,2.60
2019-03-17T06:33:29.021Z,2.70
2019-03-17T06:34:29.161Z,2.60
2019-03-17T06:35:29.214Z,2.90
2019-03-17T06:36:29.281Z,2.60
2019-03-17T06:37:31.357Z,2.70
2019-03-17T06:38:29.454Z,2.70
2019-03-17T06:39:29.544Z,2.70
2019-03-17T06:40:29.646Z,2.50
2019-03-17T06:41:29.726Z,2.70
2019-03-17T06:42:29.821Z,3.00
2019-03-17T06:43:29.911Z,2.70
2019-03-17T06:44:30.002Z,3.00
2019-03-17T06:45:30.118Z,2.50
2019-03-17T06:46:30.185Z,2.80
2019-03-17T06:47:30.281Z,2.90
2019-03-17T06:48:30.366Z,2.80
2019-03-17T06:49:30.464Z,2.50
2019-03-17T06:50:30.552Z,2.60
2019-03-17T06:51:30.646Z,2.70
2019-03-17T06:52:30.737Z,2.40
2019-03-17T06:53:30.827Z,2.30
2019-03-17T06:54:30.916Z,2.50
2019-03-17T06:55:31.003Z,2.60
2019-03-17T06:56:31.155Z,2.70
2019-03-17T06:57:31.201Z,3.00
2019-03-17T06:58:31.265Z,2.80
2019-03-17T06:59:31.348Z,2.60
2019-03-17T07:00:31.440Z,2.90
2019-03-17T07:01:31.534Z,2.70
2019-03-17T07:02:31.616Z,2.50
2019-03-17T07:03:31.713Z,3.20
2019-03-17T07:04:31.809Z,2.70
2019-03-17T07:05:31.897Z,3.00
2019-03-17T07:06:31.989Z,3.00
2019-03-17T07:07:43.266Z,2.70
2019-03-17T07:08:32.194Z,2.80
2019-03-17T07:09:32.284Z,2.80
2019-03-17T07:10:32.373Z,2.90
2019-03-17T07:11:32.467Z,2.90
2019-03-17T07:12:32.560Z,2.60
2019-03-17T07:13:32.650Z,3.10
2019-03-17T07:14:32.745Z,2.80
2019-03-17T07:15:32.828Z,2.80
2019-03-17T07:16:32.918Z,2.90
2019-03-17T07:17:33.012Z,2.80
2019-03-17T07:18:33.100Z,2.90
2019-03-17T07:19:33.176Z,2.90
2019-03-17T07:20:33.266Z,3.00
2019-03-17T07:21:33.357Z,2.50
2019-03-17T07:22:33.448Z,2.60
2019-03-17T07:23:34.426Z,3.00
2019-03-17T07:24:33.630Z,3.00
2019-03-17T07:25:33.721Z,3.00
2019-03-17T07:26:33.813Z,3.00
2019-03-17T07:27:33.906Z,3.00
2019-03-17T07:28:33.995Z,3.40
2019-03-17T07:29:34.087Z,3.20
2019-03-17T07:30:34.178Z,3.00
2019-03-17T07:31:34.276Z,3.20
2019-03-17T07:32:34.363Z,3.20
2019-03-17T07:33:34.452Z,2.90
2019-03-17T07:34:34.547Z,2.70
2019-03-17T07:35:34.637Z,2.90
2019-03-17T07:36:34.733Z,2.90
2019-03-17T07:37:34.830Z,3.30
2019-03-17T07:38:34.915Z,3.10
2019-03-17T07:39:35.008Z,3.20
2019-03-17T07:40:35.241Z,3.10
2019-03-17T07:41:35.200Z,3.00
2019-03-17T07:42:35.282Z,2.90
2019-03-17T07:43:35.370Z,3.20
2019-03-17T07:44:35.466Z,2.80
2019-03-17T07:45:35.558Z,3.00
2019-03-17T07:46:35.667Z,2.90
2019-03-17T07:47:35.863Z,3.00
2019-03-17T07:48:35.842Z,3.30
2019-03-17T07:49:35.934Z,3.10
2019-03-17T07:50:36.025Z,3.10
2019-03-17T07:51:36.117Z,3.10
2019-03-17T07:52:36.210Z,3.10
2019-03-17T07:53:36.296Z,3.00
2019-03-17T07:54:36.395Z,2.80
2019-03-17T07:55:36.480Z,2.90
2019-03-17T07:56:36.580Z,2.90
2019-03-17T07:57:36.662Z,2.80
2019-03-17T07:58:36.754Z,3.00
2019-03-17T07:59:36.848Z,3.00
2019-03-17T08:00:36.944Z,2.90
2019-03-17T08:01:37.126Z,2.80
2019-03-17T08:02:37.191Z,2.80
2019-03-17T08:03:37.181Z,3.30
2019-03-17T08:04:42.494Z,3.00
2019-03-17T08:05:37.361Z,3.00
2019-03-17T08:06:37.452Z,2.80
2019-03-17T08:07:37.543Z,2.70
2019-03-17T08:08:37.711Z,3.10
2019-03-17T08:09:37.796Z,3.10
2019-03-17T08:10:37.820Z,3.00
2019-03-17T08:11:37.911Z,3.20
2019-03-17T08:12:38.003Z,3.10
2019-03-17T08:13:38.093Z,2.90
2019-03-17T08:14:38.188Z,3.20
2019-03-17T08:15:38.280Z,2.60
2019-03-17T08:16:38.374Z,2.80
2019-03-17T08:17:38.466Z,3.60
2019-03-17T08:18:38.551Z,3.20
2019-03-17T08:19:38.642Z,2.90
2019-03-17T08:20:38.732Z,3.60
2019-03-17T08:21:38.827Z,3.00
2019-03-17T08:22:38.922Z,3.10
2019-03-17T08:23:39.011Z,3.20
2019-03-17T08:24:39.146Z,3.10
2019-03-17T08:25:39.208Z,3.10
2019-03-17T08:26:39.314Z,3.30
2019-03-17T08:27:39.405Z,3.10
2019-03-17T08:28:39.498Z,3.00
2019-03-17T08:29:39.591Z,3.10
2019-03-17T08:30:52.107Z,3.00
2019-03-17T08:31:39.773Z,3.10
2019-03-17T08:32:41.298Z,2.80
2019-03-17T08:33:39.958Z,2.80
2019-03-17T08:34:40.053Z,2.90
2019-03-17T08:35:40.142Z,2.80
2019-03-17T08:36:40.236Z,3.40
2019-03-17T08:37:40.329Z,2.70
2019-03-17T08:38:40.421Z,3.20
2019-03-17T08:39:40.514Z,3.10
2019-03-17T08:40:40.610Z,3.40
2019-03-17T08:41:40.716Z,8.10
2019-03-17T08:42:40.795Z,5.00
2019-03-17T08:43:53.448Z,4.50
2019-03-17T08:44:40.994Z,3.10
2019-03-17T08:45:41.077Z,3.00
2019-03-17T08:46:41.182Z,3.40
2019-03-17T08:47:41.262Z,2.90
2019-03-17T08:48:41.353Z,3.20
2019-03-17T08:49:41.459Z,3.00
2019-03-17T08:50:41.555Z,2.60
2019-03-17T08:51:41.659Z,3.20
2019-03-17T08:52:41.751Z,3.10
2019-03-17T08:53:41.832Z,2.50
2019-03-17T08:54:41.928Z,2.50
2019-03-17T08:55:42.022Z,2.30
2019-03-17T08:56:42.119Z,2.20
2019-03-17T08:57:42.210Z,2.50
2019-03-17T08:58:42.301Z,2.80
2019-03-17T08:59:42.400Z,2.40
2019-03-17T09:00:42.498Z,3.20
2019-03-17T09:01:42.586Z,2.90
2019-03-17T09:02:42.682Z,2.70
2019-03-17T09:03:42.774Z,3.10
2019-03-17T09:04:42.882Z,2.60
2019-03-17T09:05:42.963Z,2.40
2019-03-17T09:06:43.069Z,2.40
2019-03-17T09:07:43.160Z,2.90
2019-03-17T09:08:43.241Z,2.40
2019-03-17T09:09:43.337Z,2.40
2019-03-17T09:10:43.433Z,2.70
2019-03-17T09:11:43.526Z,2.40
2019-03-17T09:12:43.620Z,2.30
2019-03-17T09:13:43.716Z,2.50
2019-03-17T09:14:43.811Z,2.50
2019-03-17T09:15:43.903Z,2.30
2019-03-17T09:16:44.020Z,2.00
2019-03-17T09:17:44.121Z,2.40
2019-03-17T09:18:44.217Z,2.30
2019-03-17T09:19:44.309Z,2.50
2019-03-17T09:20:44.413Z,2.20
2019-03-17T09:21:44.505Z,2.10
2019-03-17T09:22:44.590Z,2.50
2019-03-17T09:23:44.704Z,2.30
2019-03-17T09:24:44.795Z,2.30
2019-03-17T09:25:44.894Z,2.20
2019-03-17T09:26:44.989Z,2.00
2019-03-17T09:27:45.093Z,2.00
2019-03-17T09:28:45.223Z,2.20
2019-03-17T09:29:46.116Z,2.30
2019-03-17T09:30:45.338Z,2.30
2019-03-17T09:31:45.431Z,2.00
2019-03-17T09:32:45.534Z,2.00
2019-03-17T09:33:45.629Z,2.20
2019-03-17T09:34:45.730Z,2.70
2019-03-17T09:35:45.822Z,2.10
2019-03-17T09:36:45.920Z,1.80
2019-03-17T09:37:46.015Z,2.00
2019-03-17T09:38:47.449Z,2.10
2019-03-17T09:39:46.209Z,2.00
2019-03-17T09:40:46.308Z,2.00
2019-03-17T09:41:46.403Z,2.00
2019-03-17T09:42:46.514Z,2.00
2019-03-17T09:43:46.595Z,2.00
2019-03-17T09:44:46.688Z,1.70
2019-03-17T09:45:46.800Z,1.90
2019-03-17T09:46:46.882Z,1.90
2019-03-17T09:47:46.974Z,1.80
2019-03-17T09:48:47.083Z,1.70
2019-03-17T09:49:47.171Z,2.00
2019-03-17T09:50:47.249Z,1.80
2019-03-17T09:51:47.342Z,2.00
2019-03-17T09:52:47.439Z,1.80
2019-03-17T09:53:47.539Z,1.60
2019-03-17T09:54:47.624Z,1.60
2019-03-17T09:55:47.722Z,1.60
2019-03-17T09:56:47.822Z,1.70
2019-03-17T09:57:47.914Z,1.50
2019-03-17T09:58:48.009Z,1.70
2019-03-17T09:59:48.103Z,1.90
2019-03-17T10:00:48.198Z,1.60
2019-03-17T10:01:48.292Z,1.90
2019-03-17T10:02:48.386Z,1.70
2019-03-17T10:03:48.481Z,1.60
2019-03-17T10:04:48.572Z,1.90
2019-03-17T10:05:49.627Z,1.90
2019-03-17T10:06:48.775Z,1.70
2019-03-17T10:07:48.856Z,1.50
2019-03-17T10:08:59.326Z,1.70
2019-03-17T10:09:49.042Z,1.70
2019-03-17T10:10:49.158Z,2.00
2019-03-17T10:11:49.241Z,1.50
2019-03-17T10:12:49.341Z,2.10
2019-03-17T10:13:49.435Z,1.50
2019-03-17T10:14:49.532Z,1.60
2019-03-17T10:15:49.649Z,1.30
2019-03-17T10:16:49.745Z,1.50
2019-03-17T10:17:49.863Z,1.30
2019-03-17T10:18:49.928Z,1.50
2019-03-17T10:19:50.023Z,1.60
2019-03-17T10:20:50.121Z,1.50
2019-03-17T10:21:50.215Z,1.40
2019-03-17T10:22:50.310Z,1.50
2019-03-17T10:23:50.403Z,1.50
2019-03-17T10:24:50.493Z,1.30
2019-03-17T10:25:50.587Z,1.30
2019-03-17T10:26:50.677Z,1.60
2019-03-17T10:27:50.772Z,1.50
2019-03-17T10:28:50.879Z,1.30
2019-03-17T10:29:50.971Z,1.20
2019-03-17T10:30:51.086Z,1.30
2019-03-17T10:31:51.174Z,1.20
2019-03-17T10:32:51.247Z,1.30
2019-03-17T10:33:51.338Z,1.50
2019-03-17T10:34:51.431Z,1.20
2019-03-17T10:35:51.528Z,1.20
2019-03-17T10:36:51.612Z,1.30
2019-03-17T10:37:51.706Z,1.20
2019-03-17T10:38:51.797Z,1.30
2019-03-17T10:39:51.897Z,1.40
2019-03-17T10:40:51.980Z,1.30
2019-03-17T10:41:52.075Z,1.20
2019-03-17T10:42:52.169Z,1.40
2019-03-17T10:43:52.261Z,1.20
2019-03-17T10:44:52.356Z,1.40
2019-03-17T10:45:52.450Z,1.50
2019-03-17T10:46:52.543Z,1.40
2019-03-17T10:47:54.577Z,1.40
2019-03-17T10:48:52.730Z,1.30
2019-03-17T10:49:52.823Z,1.60
2019-03-17T10:50:52.915Z,1.30
2019-03-17T10:51:53.012Z,1.50
2019-03-17T10:52:53.122Z,1.50
2019-03-17T10:53:53.179Z,1.30
2019-03-17T10:54:53.267Z,1.40
2019-03-17T10:55:53.363Z,1.40
2019-03-17T10:56:53.457Z,1.30
2019-03-17T10:57:53.550Z,1.50
2019-03-17T10:58:53.646Z,1.60
2019-03-17T10:59:53.738Z,1.60
2019-03-17T11:00:53.834Z,1.40
2019-03-17T11:01:53.927Z,1.70
2019-03-17T11:02:54.021Z,1.60
2019-03-17T11:03:54.110Z,1.50
2019-03-17T11:04:54.199Z,1.60
2019-03-17T11:05:54.543Z,1.50
2019-03-17T11:06:54.402Z,1.50
2019-03-17T11:07:54.501Z,1.30
2019-03-17T11:08:54.587Z,1.30
2019-03-17T11:09:54.680Z,1.30
2019-03-17T11:10:54.771Z,1.30
2019-03-17T11:11:54.865Z,1.30
2019-03-17T11:12:54.957Z,1.50
2019-03-17T11:13:55.059Z,1.30
2019-03-17T11:14:55.144Z,1.20
2019-03-17T11:15:55.238Z,1.10
2019-03-17T11:16:55.347Z,1.20
2019-03-17T11:17:55.426Z,1.30
2019-03-17T11:18:55.521Z,1.40
2019-03-17T11:19:55.614Z,1.50
2019-03-17T11:20:55.703Z,1.60
2019-03-17T11:21:55.810Z,1.20
2019-03-17T11:22:55.906Z,1.40
2019-03-17T11:23:55.972Z,1.70
2019-03-17T11:24:56.066Z,1.40
2019-03-17T11:25:56.161Z,1.40
2019-03-17T11:26:56.261Z,1.90
2019-03-17T11:27:56.349Z,1.80
2019-03-17T11:28:56.436Z,1.00
2019-03-17T11:29:56.533Z,1.10
2019-03-17T11:30:56.623Z,1.30
2019-03-17T11:31:56.716Z,1.10
2019-03-17T11:32:56.809Z,1.00
2019-03-17T11:33:56.901Z,1.00
2019-03-17T11:34:56.993Z,1.10
2019-03-17T11:35:57.078Z,0.80
2019-03-17T11:36:57.184Z,1.20
2019-03-17T11:37:57.282Z,0.80
2019-03-17T11:38:57.373Z,1.10
2019-03-17T11:39:57.474Z,0.90
2019-03-17T11:40:57.561Z,1.00
2019-03-17T11:41:58.672Z,0.80
2019-03-17T11:42:57.747Z,1.40
2019-03-17T11:43:57.858Z,1.00
2019-03-17T11:44:57.949Z,1.80
2019-03-17T11:45:58.047Z,1.20
2019-03-17T11:46:58.141Z,1.50
2019-03-17T11:47:58.241Z,1.40
2019-03-17T11:48:58.325Z,0.90
2019-03-17T11:49:58.414Z,0.80
2019-03-17T11:50:58.512Z,1.00
2019-03-17T11:51:58.607Z,1.00
2019-03-17T11:52:58.699Z,1.00
2019-03-17T11:53:58.791Z,1.20
2019-03-17T11:54:58.885Z,1.00
2019-03-17T11:55:58.977Z,1.10
2019-03-17T11:56:59.086Z,1.00
2019-03-17T11:57:59.155Z,1.20
2019-03-17T11:58:59.261Z,1.10
2019-03-17T11:59:59.347Z,1.00
2019-03-17T12:00:59.465Z,1.00
2019-03-17T12:01:59.554Z,1.10
2019-03-17T12:02:59.650Z,0.90
2019-03-17T12:03:59.741Z,1.20
2019-03-17T12:04:59.841Z,1.20
2019-03-17T12:05:59.929Z,0.90
2019-03-17T12:07:00.023Z,1.30
2019-03-17T12:08:00.149Z,1.30
2019-03-17T12:09:00.208Z,1.20
2019-03-17T12:10:00.297Z,0.90
2019-03-17T12:11:00.383Z,1.10
2019-03-17T12:12:00.475Z,1.00
2019-03-17T12:13:00.570Z,1.00
2019-03-17T12:14:00.661Z,1.10
2019-03-17T12:15:00.758Z,1.10
2019-03-17T12:16:00.846Z,1.00
2019-03-17T12:17:00.971Z,1.10
2019-03-17T12:18:01.031Z,1.20
2019-03-17T12:19:01.136Z,1.20
2019-03-17T12:20:01.216Z,1.10
2019-03-17T12:21:01.309Z,1.20
2019-03-17T12:22:08.944Z,1.20
2019-03-17T12:23:01.590Z,1.10
2019-03-17T12:24:01.577Z,1.20
2019-03-17T12:25:01.668Z,1.30
2019-03-17T12:26:01.763Z,1.10
2019-03-17T12:27:01.855Z,1.20
2019-03-17T12:28:01.956Z,1.20
2019-03-17T12:29:02.043Z,1.40
2019-03-17T12:30:02.138Z,1.10
2019-03-17T12:31:02.305Z,1.40
2019-03-17T12:32:02.347Z,1.20
2019-03-17T12:33:02.441Z,1.20
2019-03-17T12:34:02.535Z,0.90
2019-03-17T12:35:02.631Z,1.00
2019-03-17T12:36:02.725Z,1.10
2019-03-17T12:37:02.821Z,1.20
2019-03-17T12:38:02.930Z,1.20
2019-03-17T12:39:03.036Z,1.40
2019-03-17T12:40:03.486Z,1.20
2019-03-17T12:41:03.233Z,1.60
2019-03-17T12:42:03.349Z,1.60
2019-03-17T12:43:03.443Z,1.40
2019-03-17T12:44:03.539Z,1.30
2019-03-17T12:45:03.650Z,1.40
2019-03-17T12:46:03.748Z,1.30
2019-03-17T12:47:03.845Z,1.70
2019-03-17T12:48:03.936Z,1.20
2019-03-17T12:49:04.032Z,1.00
2019-03-17T12:50:04.127Z,1.10
2019-03-17T12:51:04.216Z,1.20
2019-03-17T12:52:04.319Z,1.20
2019-03-17T12:53:04.447Z,1.10
2019-03-17T12:54:04.512Z,1.20
2019-03-17T12:55:04.608Z,1.40
2019-03-17T12:56:04.706Z,1.30
2019-03-17T12:57:04.799Z,1.30
2019-03-17T12:58:04.895Z,1.10
2019-03-17T12:59:05.008Z,1.20
2019-03-17T13:00:12.266Z,1.10
2019-03-17T13:01:05.224Z,1.10
2019-03-17T13:02:05.351Z,1.10
2019-03-17T13:03:05.346Z,1.40
2019-03-17T13:04:05.418Z,1.10
2019-03-17T13:05:05.402Z,1.20
2019-03-17T13:06:05.496Z,1.10
2019-03-17T13:07:05.593Z,1.20
2019-03-17T13:08:05.688Z,1.20
2019-03-17T13:09:05.784Z,1.10
2019-03-17T13:10:14.856Z,1.10
2019-03-17T13:11:05.983Z,1.20
2019-03-17T13:12:06.120Z,1.10
2019-03-17T13:13:06.168Z,1.10
2019-03-17T13:14:06.985Z,1.30
2019-03-17T13:15:06.360Z,1.20
2019-03-17T13:16:06.457Z,1.00
2019-03-17T13:17:06.541Z,1.00
2019-03-17T13:18:06.631Z,1.10
2019-03-17T13:19:06.726Z,1.30
2019-03-17T13:20:06.816Z,1.00